Time;durP1;ratioP1;P1;durP2;ratioP2;P2;SDS_P1;SDS_P2;PMS_P1;PMS_P2;Temp;Humidity;BMP_temperature;BMP_pressure;BME280_temperature;BME280_humidity;BME280_pressure;Samples;Min_cycle;Max_cycle;Signal;HPM_P1;HPM_P2
2024/02/03 00:01:37;;;;;;;15.60;5.90;;;;;;;0.20;78.01;99507.35;106966;1254;72698;-80
2024/02/03 00:04:05;;;;;;;14.30;5.20;;;;;;;0.28;77.93;99504.77;106620;1256;60549;-79
2024/02/03 00:06:33;;;;;;;15.30;6.10;;;;;;;0.30;77.79;99503.41;107865;1254;60257;-77
2024/02/03 00:09:02;;;;;;;17.60;5.60;;;;;;;0.25;78.06;99501.32;106272;1257;72944;-77
2024/02/03 00:11:30;;;;;;;15.60;6.00;;;;;;;0.19;78.31;99494.58;105958;1256;68910;-77
2024/02/03 00:13:57;;;;;;;17.60;4.90;;;;;;;0.17;78.32;99488.60;105943;1259;71321;-77
2024/02/03 00:16:25;;;;;;;16.70;5.30;;;;;;;0.24;78.25;99484.85;105877;1253;61251;-77
2024/02/03 00:18:52;;;;;;;14.80;5.30;;;;;;;0.23;78.29;99480.17;105850;1253;60374;-77
2024/02/03 00:21:20;;;;;;;15.30;5.70;;;;;;;0.18;78.42;99473.54;105924;1253;73195;-77
2024/02/03 00:23:48;;;;;;;14.60;5.30;;;;;;;0.12;78.74;99469.92;105864;1258;69197;-77
2024/02/03 00:26:16;;;;;;;17.40;5.10;;;;;;;0.14;78.78;99459.35;105805;1253;190935;-78
2024/02/03 00:31:08;;;;;;;13.00;5.30;;;;;;;0.25;78.58;99459.00;102193;1294;602479;-77
2024/02/03 00:33:35;;;;;;;20.20;6.10;;;;;;;0.17;79.05;99453.27;104834;1270;59707;-77
2024/02/03 00:36:02;;;;;;;17.40;5.70;;;;;;;0.13;79.21;99453.90;104971;1266;59305;-76
2024/02/03 00:38:29;;;;;;;12.50;6.00;;;;;;;0.15;79.30;99457.40;105123;1270;72107;-76
2024/02/03 00:40:55;;;;;;;18.60;7.50;;;;;;;0.19;79.26;99463.02;105071;1266;68170;-77
2024/02/03 00:43:22;;;;;;;17.70;6.70;;;;;;;0.15;79.05;99453.89;105021;1272;134495;-77
2024/02/03 00:45:49;;;;;;;16.60;5.80;;;;;;;0.08;79.37;99453.73;105626;1257;59270;-76
2024/02/03 00:48:16;;;;;;;18.50;6.10;;;;;;;0.06;79.44;99446.52;105736;1257;60363;-76
2024/02/03 00:50:42;;;;;;;19.00;6.20;;;;;;;0.11;79.55;99441.14;105715;1260;71090;-77
2024/02/03 00:53:09;;;;;;;13.10;5.80;;;;;;;0.06;79.63;99442.69;106047;1258;59162;-77
2024/02/03 00:55:36;;;;;;;19.80;5.90;;;;;;;-0.02;79.89;99439.77;107354;1257;72720;-77
2024/02/03 00:58:03;;;;;;;14.90;5.50;;;;;;;0.00;80.09;99438.95;106566;1261;59756;-77
2024/02/03 01:00:30;;;;;;;17.60;5.00;;;;;;;0.07;79.93;99437.59;107665;1257;60098;-76
2024/02/03 01:02:57;;;;;;;16.70;6.00;;;;;;;0.08;79.88;99440.13;105986;1257;72835;-77
2024/02/03 01:05:24;;;;;;;18.50;6.00;;;;;;;0.04;80.05;99435.73;105894;1256;70439;-75
2024/02/03 01:07:51;;;;;;;13.50;5.30;;;;;;;0.01;80.07;99435.27;105646;1260;72712;-76
2024/02/03 01:10:20;;;;;;;15.70;4.80;;;;;;;0.05;80.09;99433.91;105677;1257;60089;-76
2024/02/03 01:12:47;;;;;;;17.60;6.70;;;;;;;0.12;80.07;99419.82;105583;1256;60371;-77
2024/02/03 01:15:14;;;;;;;16.00;6.80;;;;;;;0.10;80.15;99415.79;105610;1256;71156;-76
2024/02/03 01:17:41;;;;;;;18.30;5.70;;;;;;;0.06;80.10;99403.89;105670;1257;70284;-76
2024/02/03 01:20:08;;;;;;;16.10;6.20;;;;;;;0.03;80.43;99391.21;106548;1257;71433;-75
2024/02/03 01:22:35;;;;;;;12.20;5.60;;;;;;;0.11;80.41;99382.41;106438;1257;61493;-76
2024/02/03 01:25:03;;;;;;;16.10;6.30;;;;;;;0.19;80.12;99382.38;105646;1256;60118;-78
2024/02/03 01:27:30;;;;;;;25.10;7.70;;;;;;;0.18;80.08;99371.52;105792;1257;71617;-78
2024/02/03 01:29:56;;;;;;;13.20;5.90;;;;;;;0.15;80.25;99358.83;105938;1254;70204;-77
2024/02/03 01:32:23;;;;;;;16.30;6.00;;;;;;;0.22;80.23;99355.02;105972;1254;59758;-77
2024/02/03 01:34:50;;;;;;;15.00;6.60;;;;;;;0.30;79.85;99346.77;106067;1253;59902;-78
2024/02/03 01:37:16;;;;;;;17.30;6.70;;;;;;;0.30;79.73;99339.63;106360;1257;59669;-77
2024/02/03 01:39:43;;;;;;;20.70;7.50;;;;;;;0.28;79.96;99346.38;106493;1254;73300;-74
2024/02/03 01:42:09;;;;;;;18.30;5.70;;;;;;;0.32;79.72;99330.23;106346;1253;68065;-77
2024/02/03 01:44:36;;;;;;;14.90;6.80;;;;;;;0.43;79.43;99323.35;106120;1254;71244;-76
2024/02/03 01:47:04;;;;;;;15.50;6.80;;;;;;;0.46;79.34;99325.54;106109;1257;63128;-76
2024/02/03 01:49:31;;;;;;;17.90;5.30;;;;;;;0.44;79.28;99313.52;105913;1257;59645;-77
2024/02/03 01:51:58;;;;;;;17.40;5.70;;;;;;;0.43;79.47;99310.96;106000;1254;71681;-75
2024/02/03 01:54:28;;;;;;;14.40;6.50;;;;;;;0.51;79.26;99305.48;106043;1256;68924;-76
2024/02/03 01:56:56;;;;;;;15.70;7.40;;;;;;;0.55;79.05;99303.45;107670;1254;71181;-76
2024/02/03 01:59:24;;;;;;;17.10;6.50;;;;;;;0.51;79.17;99299.55;108914;1254;59592;-76
2024/02/03 02:01:50;;;;;;;16.90;6.50;;;;;;;0.50;79.25;99290.92;107527;1255;59288;-76
2024/02/03 02:04:17;;;;;;;14.30;6.80;;;;;;;0.59;79.35;99286.63;106367;1259;72916;-77
2024/02/03 02:06:44;;;;;;;20.90;7.20;;;;;;;0.69;79.41;99288.34;106293;1254;70254;-75
2024/02/03 02:09:21;;;;;;;17.80;7.10;;;;;;;0.68;79.41;99282.98;105937;1254;72740;-77
2024/02/03 02:11:48;;;;;;;16.60;5.80;;;;;;;0.64;79.90;99282.95;106050;1254;59550;-77
2024/02/03 02:14:14;;;;;;;17.20;5.40;;;;;;;0.68;80.07;99287.99;106059;1256;59653;-76
2024/02/03 02:16:41;;;;;;;17.50;6.60;;;;;;;0.75;80.15;99281.40;106114;1254;72948;-76
2024/02/03 02:19:08;;;;;;;22.30;6.50;;;;;;;0.71;80.56;99273.16;106055;1254;70354;-75
2024/02/03 02:21:35;;;;;;;19.50;6.90;;;;;;;0.65;81.27;99275.35;106039;1256;70842;-77
2024/02/03 02:24:02;;;;;;;14.20;5.90;;;;;;;0.68;81.67;99282.40;106009;1253;61660;-78
2024/02/03 02:26:28;;;;;;;12.80;6.20;;;;;;;0.73;82.08;99277.16;107382;1253;60351;-76
2024/02/03 02:28:55;;;;;;;17.30;5.30;;;;;;;0.68;82.45;99278.95;107530;1252;72711;-75
2024/02/03 02:31:22;;;;;;;15.10;5.90;;;;;;;0.65;82.95;99271.04;106136;1254;70342;-76
2024/02/03 02:33:48;;;;;;;19.30;6.10;;;;;;;0.69;82.92;99270.02;106223;1254;72757;-75
2024/02/03 02:36:15;;;;;;;14.00;5.60;;;;;;;0.72;82.96;99258.41;106605;1256;59714;-76
2024/02/03 02:38:42;;;;;;;23.40;7.60;;;;;;;0.68;83.22;99253.86;105904;1254;60249;-77
2024/02/03 02:41:09;;;;;;;15.10;5.70;;;;;;;0.61;83.71;99254.23;105793;1254;72210;-76
2024/02/03 02:43:36;;;;;;;14.60;5.60;;;;;;;0.61;84.21;99256.84;106040;1254;70698;-75
2024/02/03 02:46:02;;;;;;;17.80;6.10;;;;;;;0.65;84.27;99247.97;106003;1252;59628;-78
2024/02/03 02:48:29;;;;;;;15.80;5.90;;;;;;;0.66;84.34;99243.05;105996;1254;59725;-77
2024/02/03 02:50:56;;;;;;;13.80;5.60;;;;;;;0.58;84.68;99236.83;106163;1252;60076;-77
2024/02/03 02:53:23;;;;;;;15.70;5.40;;;;;;;0.58;85.04;99229.52;106179;1252;72760;-78
2024/02/03 02:55:50;;;;;;;14.70;5.80;;;;;;;0.62;85.19;99224.36;106427;1254;68820;-78
2024/02/03 02:58:16;;;;;;;14.10;5.50;;;;;;;0.56;85.63;99221.10;109200;1252;71097;-77
2024/02/03 03:00:43;;;;;;;12.20;4.70;;;;;;;0.55;85.82;99215.48;108794;1252;59782;-77
2024/02/03 03:03:10;;;;;;;12.70;5.20;;;;;;;0.61;85.60;99214.52;107035;1253;59288;-78
2024/02/03 03:05:37;;;;;;;12.90;5.70;;;;;;;0.64;85.57;99206.42;106280;1259;72983;-78
2024/02/03 03:08:04;;;;;;;14.60;5.70;;;;;;;0.67;85.28;99203.91;106391;1254;69154;-77
2024/02/03 03:10:31;;;;;;;14.10;5.90;;;;;;;0.66;85.25;99195.42;106097;1256;70254;-78
2024/02/03 03:12:57;;;;;;;20.10;8.40;;;;;;;0.61;85.47;99206.27;105995;1253;61082;-78
2024/02/03 03:15:24;;;;;;;16.90;7.20;;;;;;;0.65;85.58;99188.73;105984;1254;60493;-78
2024/02/03 03:17:50;;;;;;;17.90;5.80;;;;;;;0.70;85.48;99191.80;105849;1253;72835;-77
2024/02/03 03:20:17;;;;;;;15.20;5.90;;;;;;;0.70;85.43;99184.52;105843;1253;68742;-78
2024/02/03 03:22:44;;;;;;;15.30;5.30;;;;;;;0.65;85.82;99180.88;105890;1254;71455;-78
2024/02/03 03:25:11;;;;;;;21.60;8.50;;;;;;;0.68;86.03;99172.08;106025;1256;59613;-78
2024/02/03 03:27:37;;;;;;;12.70;6.30;;;;;;;0.72;86.17;99169.34;106037;1254;60037;-78
2024/02/03 03:30:05;;;;;;;16.70;6.20;;;;;;;0.74;86.25;99159.65;106029;1253;70868;-77
2024/02/03 03:32:32;;;;;;;15.90;5.50;;;;;;;0.65;86.69;99165.93;105877;1258;69141;-76
2024/02/03 03:34:59;;;;;;;15.60;5.30;;;;;;;0.63;87.32;99161.20;105760;1256;72814;-75
2024/02/03 03:37:25;;;;;;;19.40;5.70;;;;;;;0.66;87.64;99160.94;105793;1254;59651;-75
2024/02/03 03:39:52;;;;;;;16.80;5.90;;;;;;;0.68;87.67;99158.48;105881;1253;60062;-75
2024/02/03 03:42:19;;;;;;;19.80;6.30;;;;;;;0.67;88.22;99153.95;105981;1254;72913;-75
2024/02/03 03:44:46;;;;;;;21.60;6.90;;;;;;;0.58;88.82;99143.96;106100;1258;70148;-76
2024/02/03 03:47:13;;;;;;;14.10;5.40;;;;;;;0.56;89.36;99135.70;105956;1257;71372;-75
2024/02/03 03:49:39;;;;;;;17.30;6.80;;;;;;;0.58;89.85;99135.22;106478;1258;61025;-75
2024/02/03 03:52:06;;;;;;;18.80;7.10;;;;;;;0.57;90.36;99123.25;106697;1253;60221;-76
2024/02/03 03:54:33;;;;;;;16.30;7.00;;;;;;;0.57;91.04;99117.49;106598;1256;59580;-75
2024/02/03 03:56:59;;;;;;;16.50;6.60;;;;;;;0.55;91.48;99112.60;106995;1253;70357;-77
2024/02/03 03:59:27;;;;;;;15.30;6.20;;;;;;;0.49;92.22;99105.13;109000;1253;70284;-76
2024/02/03 04:01:53;;;;;;;17.30;6.30;;;;;;;0.45;93.16;99100.20;108637;1253;59657;-76
2024/02/03 04:04:20;;;;;;;17.20;6.70;;;;;;;0.44;93.89;99096.58;106487;1255;59564;-76
2024/02/03 04:06:47;;;;;;;15.80;6.30;;;;;;;0.42;94.24;99083.21;108272;1254;71577;-76
2024/02/03 04:09:15;;;;;;;19.50;6.80;;;;;;;0.39;94.76;99080.90;108092;1253;69814;-79
2024/02/03 04:11:42;;;;;;;12.70;6.20;;;;;;;0.38;95.33;99081.53;106233;1256;71662;-78
2024/02/03 04:14:09;;;;;;;13.80;6.20;;;;;;;0.38;95.60;99067.83;106038;1253;60003;-78
2024/02/03 04:16:36;;;;;;;16.30;6.40;;;;;;;0.36;95.83;99065.30;105843;1257;60320;-76
2024/02/03 04:19:02;;;;;;;18.20;7.40;;;;;;;0.31;96.49;99055.09;105799;1258;73000;-75
2024/02/03 04:21:30;;;;;;;12.10;6.60;;;;;;;0.26;96.81;99050.94;105893;1258;70356;-76
2024/02/03 04:23:57;;;;;;;16.40;6.40;;;;;;;0.27;97.08;99044.11;105978;1256;72349;-74
2024/02/03 04:26:24;;;;;;;17.80;6.90;;;;;;;0.29;97.23;99050.70;105802;1253;59559;-76
2024/02/03 04:28:50;;;;;;;15.10;5.60;;;;;;;0.30;97.55;99051.89;105746;1258;59653;-75
2024/02/03 04:31:18;;;;;;;16.80;6.30;;;;;;;0.30;97.46;99042.61;105796;1257;73463;-76
2024/02/03 04:33:44;;;;;;;13.20;6.60;;;;;;;0.31;97.62;99043.45;105855;1253;70193;-76
2024/02/03 04:36:11;;;;;;;19.30;7.00;;;;;;;0.25;97.93;99027.19;105843;1254;72445;-75
2024/02/03 04:38:37;;;;;;;18.60;7.50;;;;;;;0.23;98.03;99016.40;105799;1253;61094;-77
2024/02/03 04:41:04;;;;;;;16.80;7.20;;;;;;;0.25;98.01;99003.71;105792;1252;60598;-76
2024/02/03 04:43:31;;;;;;;15.40;6.70;;;;;;;0.27;97.71;99001.95;105965;1256;72811;-76
2024/02/03 04:45:57;;;;;;;16.60;8.70;;;;;;;0.28;97.67;98994.05;105715;1258;70329;-76
2024/02/03 04:48:24;;;;;;;17.30;7.70;;;;;;;0.28;97.69;98978.69;105656;1256;72515;-75
2024/02/03 04:50:51;;;;;;;24.70;11.70;;;;;;;0.28;97.81;98973.13;105793;1255;60891;-75
2024/02/03 04:53:17;;;;;;;16.90;9.60;;;;;;;0.30;97.83;98965.80;105815;1255;60585;-76
2024/02/03 04:55:44;;;;;;;18.90;8.00;;;;;;;0.31;97.72;98964.73;105879;1254;72575;-76
2024/02/03 04:58:11;;;;;;;12.90;6.90;;;;;;;0.24;97.89;98954.98;107268;1253;70060;-76
2024/02/03 05:00:38;;;;;;;16.60;8.60;;;;;;;0.23;98.22;98956.25;108924;1254;71909;-77
2024/02/03 05:03:06;;;;;;;25.90;13.20;;;;;;;0.29;98.16;98932.97;108134;1254;60499;-77
2024/02/03 05:05:33;;;;;;;14.90;6.90;;;;;;;0.29;98.10;98934.70;106774;1254;60423;-78
2024/02/03 05:07:59;;;;;;;18.00;6.20;;;;;;;0.26;98.36;98916.20;106060;1256;73649;-75
2024/02/03 05:10:26;;;;;;;14.10;7.30;;;;;;;0.27;98.41;98908.39;105777;1256;68887;-76
2024/02/03 05:12:52;;;;;;;15.60;7.40;;;;;;;0.24;98.71;98891.60;105799;1258;72706;-78
2024/02/03 05:15:19;;;;;;;16.20;7.30;;;;;;;0.21;98.84;98890.76;105727;1256;60567;-78
2024/02/03 05:17:46;;;;;;;15.20;7.40;;;;;;;0.26;98.84;98918.13;105868;1253;60488;-78
2024/02/03 05:20:13;;;;;;;15.90;7.10;;;;;;;0.28;98.48;98892.66;105801;1254;73792;-80
2024/02/03 05:22:40;;;;;;;15.00;6.80;;;;;;;0.29;98.29;98896.58;105989;1256;68822;-79
2024/02/03 05:25:08;;;;;;;14.70;6.40;;;;;;;0.32;98.10;98889.92;105828;1257;70098;-78
2024/02/03 05:27:35;;;;;;;15.50;9.50;;;;;;;0.33;98.15;98886.36;105938;1253;60546;-80
2024/02/03 05:30:01;;;;;;;14.60;6.30;;;;;;;0.32;98.01;98868.09;106013;1254;60805;-79
2024/02/03 05:32:29;;;;;;;13.00;7.10;;;;;;;0.31;98.41;98882.18;105810;1256;73686;-79
2024/02/03 05:34:56;;;;;;;12.90;7.30;;;;;;;0.30;98.39;98884.86;105891;1253;70359;-77
2024/02/03 05:37:22;;;;;;;14.30;7.80;;;;;;;0.29;98.62;98872.52;105863;1255;72479;-79
2024/02/03 05:39:49;;;;;;;12.90;6.90;;;;;;;0.29;98.76;98872.68;106069;1253;60422;-79
2024/02/03 05:42:16;;;;;;;11.90;7.00;;;;;;;0.30;98.38;98861.00;106031;1253;60530;-79
2024/02/03 05:44:44;;;;;;;15.70;6.80;;;;;;;0.32;98.41;98852.61;105981;1258;73830;-79
2024/02/03 05:47:11;;;;;;;14.60;7.50;;;;;;;0.32;98.48;98847.61;105887;1256;70041;-78
2024/02/03 05:49:39;;;;;;;11.90;6.70;;;;;;;0.30;98.49;98851.35;106492;1253;60566;-78
2024/02/03 05:52:05;;;;;;;14.20;6.30;;;;;;;0.30;98.57;98875.10;107200;1253;60419;-79
2024/02/03 05:54:32;;;;;;;12.40;6.50;;;;;;;0.33;98.55;98855.00;107959;1253;60418;-80
2024/02/03 05:56:59;;;;;;;13.60;6.50;;;;;;;0.35;98.45;98857.45;106134;1252;73865;-77
2024/02/03 05:59:25;;;;;;;16.10;7.60;;;;;;;0.34;98.48;98862.08;108185;1253;60375;-79
2024/02/03 06:02:06;;;;;;;10.40;6.30;;;;;;;0.35;98.34;98853.95;109231;1253;71590;-83
2024/02/03 06:04:32;;;;;;;15.60;6.70;;;;;;;0.35;98.68;98837.95;109014;1253;61254;-83
2024/02/03 06:06:59;;;;;;;13.80;7.20;;;;;;;0.35;98.74;98850.27;108115;1254;58828;-84
2024/02/03 06:09:26;;;;;;;11.00;6.40;;;;;;;0.37;98.82;98842.61;109321;1252;72437;-84
2024/02/03 06:11:53;;;;;;;13.80;7.10;;;;;;;0.36;99.15;98841.48;106477;1257;69417;-85
2024/02/03 06:14:20;;;;;;;12.20;6.60;;;;;;;0.36;99.27;98834.70;106248;1254;74638;-83
2024/02/03 06:16:46;;;;;;;13.10;7.10;;;;;;;0.34;99.41;98850.04;106542;1256;59917;-82
2024/02/03 06:19:13;;;;;;;12.60;7.40;;;;;;;0.33;99.63;98845.05;108037;1256;60529;-83
2024/02/03 06:21:40;;;;;;;12.30;6.80;;;;;;;0.33;99.75;98838.44;106536;1253;73551;-82
2024/02/03 06:24:07;;;;;;;12.20;6.60;;;;;;;0.31;99.96;98850.43;106285;1253;70432;-81
2024/02/03 06:26:34;;;;;;;13.20;7.50;;;;;;;0.30;99.96;98824.95;105969;1257;73486;-83
2024/02/03 06:29:01;;;;;;;10.90;6.50;;;;;;;0.29;99.99;98815.40;106198;1254;60421;-82
2024/02/03 06:31:28;;;;;;;15.70;7.80;;;;;;;0.29;100.00;98815.27;106985;1254;60471;-83
2024/02/03 06:33:54;;;;;;;10.80;6.40;;;;;;;0.27;100.00;98807.77;106839;1260;60452;-85
2024/02/03 06:36:21;;;;;;;10.00;5.90;;;;;;;0.27;100.00;98805.48;107058;1253;68931;-84
2024/02/03 06:38:48;;;;;;;14.30;8.60;;;;;;;0.28;100.00;98799.48;108510;1254;72589;-81
2024/02/03 06:41:16;;;;;;;11.40;7.50;;;;;;;0.28;100.00;98787.84;106956;1256;60449;-85
2024/02/03 06:43:43;;;;;;;10.90;5.30;;;;;;;0.27;100.00;98778.67;106238;1253;60536;-85
2024/02/03 06:46:11;;;;;;;15.50;7.80;;;;;;;0.26;100.00;98773.92;106011;1259;73979;-81
2024/02/03 06:48:38;;;;;;;10.70;6.70;;;;;;;0.22;100.00;98780.44;106117;1253;69118;-83
2024/02/03 06:51:04;;;;;;;13.10;7.90;;;;;;;0.21;100.00;98776.02;106497;1257;71258;-83
2024/02/03 06:53:31;;;;;;;12.00;7.00;;;;;;;0.20;100.00;98782.39;106145;1254;60928;-82
2024/02/03 06:55:58;;;;;;;12.70;6.60;;;;;;;0.19;100.00;98775.64;106142;1255;60712;-82
2024/02/03 06:58:25;;;;;;;11.40;5.70;;;;;;;0.19;100.00;98768.14;106177;1258;73712;-83
2024/02/03 07:00:52;;;;;;;13.00;8.30;;;;;;;0.21;100.00;98746.81;108990;1253;68840;-82
2024/02/03 07:03:19;;;;;;;9.40;5.90;;;;;;;0.22;100.00;98754.86;108857;1253;71187;-83
2024/02/03 07:05:45;;;;;;;11.90;6.90;;;;;;;0.27;100.00;98731.84;107325;1256;60532;-82
2024/02/03 07:08:12;;;;;;;9.10;6.50;;;;;;;0.27;100.00;98737.35;108312;1253;60492;-81
2024/02/03 07:10:39;;;;;;;10.90;7.20;;;;;;;0.30;100.00;98719.06;106985;1256;72583;-80
2024/02/03 07:13:06;;;;;;;11.80;6.70;;;;;;;0.31;100.00;98714.26;106935;1254;69688;-80
2024/02/03 07:15:32;;;;;;;16.00;8.10;;;;;;;0.30;100.00;98711.84;105971;1253;72470;-80
2024/02/03 07:17:59;;;;;;;13.90;9.20;;;;;;;0.32;100.00;98706.68;107165;1254;60436;-82
2024/02/03 07:20:26;;;;;;;14.90;9.50;;;;;;;0.34;100.00;98710.69;106107;1257;60350;-80
2024/02/03 07:22:53;;;;;;;15.10;8.80;;;;;;;0.35;100.00;98720.81;106068;1254;73869;-80
2024/02/03 07:25:19;;;;;;;14.60;8.30;;;;;;;0.36;100.00;98716.93;106222;1256;69091;-79
2024/02/03 07:27:46;;;;;;;11.80;8.40;;;;;;;0.37;100.00;98720.02;106123;1257;72502;-82
2024/02/03 07:30:13;;;;;;;15.50;8.10;;;;;;;0.37;100.00;98713.89;106102;1254;60469;-79
2024/02/03 07:32:42;;;;;;;13.70;8.60;;;;;;;0.37;100.00;98708.30;107063;1254;60411;-81
2024/02/03 07:35:10;;;;;;;14.40;9.20;;;;;;;0.37;100.00;98698.63;106417;1256;72355;-80
2024/02/03 07:37:37;;;;;;;10.90;7.20;;;;;;;0.37;100.00;98696.46;108185;1259;70448;-80
2024/02/03 07:40:06;;;;;;;14.90;8.40;;;;;;;0.39;100.00;98703.10;106724;1255;70178;-81
2024/02/03 07:42:33;;;;;;;12.60;8.10;;;;;;;0.42;100.00;98687.59;106415;1254;60987;-82
2024/02/03 07:45:00;;;;;;;12.40;7.50;;;;;;;0.42;100.00;98680.92;106402;1254;60353;-80
2024/02/03 07:47:26;;;;;;;13.20;7.70;;;;;;;0.42;100.00;98680.61;106479;1257;73652;-80
2024/02/03 07:49:59;;;;;;;13.00;8.60;;;;;;;0.42;100.00;98676.02;106553;1254;70268;-79
2024/02/03 07:52:26;;;;;;;10.50;8.50;;;;;;;0.45;100.00;98671.77;106016;1254;72380;-79
2024/02/03 07:54:53;;;;;;;11.10;8.30;;;;;;;0.49;100.00;98664.99;106232;1253;61169;-80
2024/02/03 07:57:20;;;;;;;14.10;8.70;;;;;;;0.47;100.00;98668.28;106561;1256;60440;-79
2024/02/03 07:59:47;;;;;;;11.90;8.10;;;;;;;0.45;100.00;98665.36;107144;1254;73644;-81
2024/02/03 08:02:14;;;;;;;14.20;8.20;;;;;;;0.48;100.00;98658.78;109402;1253;67739;-79
2024/02/03 08:04:43;;;;;;;14.90;8.20;;;;;;;0.48;100.00;98652.86;108548;1252;72044;-80
2024/02/03 08:07:11;;;;;;;12.80;8.30;;;;;;;0.49;100.00;98650.50;107886;1252;60167;-80
2024/02/03 08:09:39;;;;;;;10.40;7.50;;;;;;;0.51;100.00;98646.52;107184;1253;60418;-80
2024/02/03 08:12:06;;;;;;;9.50;7.20;;;;;;;0.52;100.00;98650.95;106380;1254;73821;-80
2024/02/03 08:14:33;;;;;;;11.00;7.80;;;;;;;0.54;100.00;98640.54;105959;1257;68938;-81
2024/02/03 08:16:59;;;;;;;11.10;7.50;;;;;;;0.56;100.00;98635.78;106094;1254;60444;-81
2024/02/03 08:19:26;;;;;;;12.60;7.80;;;;;;;0.56;100.00;98637.54;106269;1254;62167;-80
2024/02/03 08:21:53;;;;;;;12.70;7.40;;;;;;;0.56;100.00;98622.90;106219;1253;60453;-80
2024/02/03 08:24:19;;;;;;;12.70;7.20;;;;;;;0.58;100.00;98634.64;106132;1254;72452;-79
2024/02/03 08:26:48;;;;;;;10.50;6.70;;;;;;;0.58;100.00;98626.20;106171;1256;69054;-79
2024/02/03 08:29:15;;;;;;;11.70;7.10;;;;;;;0.58;100.00;98615.58;107586;1254;72656;-81
2024/02/03 08:31:42;;;;;;;10.30;7.00;;;;;;;0.59;100.00;98615.36;107662;1254;60343;-82
2024/02/03 08:34:08;;;;;;;11.30;6.80;;;;;;;0.60;100.00;98608.52;106870;1253;60519;-82
2024/02/03 08:36:35;;;;;;;14.00;8.40;;;;;;;0.63;100.00;98601.30;107154;1254;73629;-81
2024/02/03 08:39:03;;;;;;;10.90;8.10;;;;;;;0.64;100.00;98584.58;106581;1254;68826;-82
2024/02/03 08:41:30;;;;;;;12.70;8.10;;;;;;;0.64;100.00;98583.77;106231;1254;72664;-80
2024/02/03 08:43:57;;;;;;;13.60;7.70;;;;;;;0.65;100.00;98593.39;106155;1255;60543;-81
2024/02/03 08:46:24;;;;;;;14.60;8.80;;;;;;;0.68;100.00;98586.39;106559;1256;60413;-81
2024/02/03 08:48:51;;;;;;;10.30;7.40;;;;;;;0.71;100.00;98586.80;106458;1254;73698;-83
2024/02/03 08:51:18;;;;;;;12.10;7.80;;;;;;;0.74;100.00;98586.71;106357;1254;70293;-83
2024/02/03 08:53:44;;;;;;;16.40;9.60;;;;;;;0.73;100.00;98575.63;106271;1254;72357;-81
2024/02/03 08:56:11;;;;;;;16.40;11.90;;;;;;;0.75;100.00;98567.98;106130;1256;61011;-83
2024/02/03 08:58:38;;;;;;;12.70;9.40;;;;;;;0.76;100.00;98574.67;106457;1254;60433;-82
2024/02/03 09:01:05;;;;;;;12.80;8.40;;;;;;;0.77;100.00;98567.58;108056;1256;72294;-80
2024/02/03 09:03:32;;;;;;;12.40;8.30;;;;;;;0.80;100.00;98559.89;109390;1254;68733;-81
2024/02/03 09:05:59;;;;;;;13.00;8.80;;;;;;;0.83;100.00;98554.91;109412;1254;71453;-79
2024/02/03 09:08:26;;;;;;;13.30;8.00;;;;;;;0.87;100.00;98550.39;107622;1257;60453;-83
2024/02/03 09:10:53;;;;;;;13.20;8.80;;;;;;;0.91;100.00;98539.51;107265;1255;60527;-83
2024/02/03 09:13:20;;;;;;;11.30;8.30;;;;;;;0.96;100.00;98532.43;106479;1259;71979;-81
2024/02/03 09:15:47;;;;;;;9.00;6.70;;;;;;;1.02;100.00;98531.59;107032;1254;68819;-81
2024/02/03 09:18:14;;;;;;;13.10;9.40;;;;;;;1.07;100.00;98527.47;106598;1257;72675;-81
2024/02/03 09:20:41;;;;;;;14.40;9.90;;;;;;;1.11;100.00;98514.02;106570;1257;60537;-83
2024/02/03 09:23:07;;;;;;;11.40;7.40;;;;;;;1.15;100.00;98510.74;107382;1256;60430;-88
2024/02/03 09:25:34;;;;;;;13.80;9.40;;;;;;;1.18;100.00;98500.31;107587;1254;72456;-84
2024/02/03 09:28:01;;;;;;;12.50;9.70;;;;;;;1.23;100.00;98491.70;106887;1257;69821;-84
2024/02/03 09:30:28;;;;;;;9.40;6.50;;;;;;;1.25;100.00;98498.15;107226;1254;72668;-83
2024/02/03 09:32:55;;;;;;;10.70;7.70;;;;;;;1.27;100.00;98491.80;107352;1256;60434;-83
2024/02/03 09:35:27;;;;;;;10.40;8.10;;;;;;;1.34;100.00;98484.95;107403;1256;59925;-81
2024/02/03 09:37:53;;;;;;;15.20;9.50;;;;;;;1.40;100.00;98474.48;107935;1256;73571;-81
2024/02/03 09:40:22;;;;;;;15.90;10.30;;;;;;;1.46;100.00;98480.77;107156;1251;70146;-83
2024/02/03 09:42:49;;;;;;;17.80;12.70;;;;;;;1.50;100.00;98473.58;106521;1257;72364;-78
2024/02/03 09:45:16;;;;;;;16.30;11.20;;;;;;;1.52;100.00;98466.38;106100;1256;60645;-78
2024/02/03 09:47:43;;;;;;;13.00;8.50;;;;;;;1.55;100.00;98468.38;106062;1256;60465;-77
2024/02/03 09:50:10;;;;;;;15.80;9.70;;;;;;;1.56;100.00;98461.98;105982;1257;73857;-79
2024/02/03 09:52:37;;;;;;;13.50;8.70;;;;;;;1.56;100.00;98457.41;105980;1254;70211;-78
2024/02/03 09:55:05;;;;;;;12.50;8.00;;;;;;;1.58;100.00;98457.98;106219;1257;71391;-78
2024/02/03 09:57:33;;;;;;;12.40;8.30;;;;;;;1.59;100.00;98461.37;106475;1254;60449;-79
2024/02/03 10:00:00;;;;;;;8.90;7.20;;;;;;;1.63;100.00;98457.36;106450;1260;60421;-80
2024/02/03 10:02:27;;;;;;;8.20;6.70;;;;;;;1.68;100.00;98455.80;107662;1256;72565;-81
2024/02/03 10:04:55;;;;;;;10.40;7.00;;;;;;;1.73;100.00;98444.83;108872;1254;68789;-80
2024/02/03 10:07:22;;;;;;;19.60;9.80;;;;;;;1.78;100.00;98447.88;109048;1254;71481;-80
2024/02/03 10:09:50;;;;;;;9.40;7.10;;;;;;;1.83;100.00;98431.77;108921;1256;59514;-79
2024/02/03 10:12:24;;;;;;;31.70;15.30;;;;;;;1.88;100.00;98430.20;107686;1256;60039;-79
2024/02/03 10:15:08;;;;;;;24.70;12.30;;;;;;;1.92;100.00;98427.05;106737;1258;73907;-81
2024/02/03 10:17:34;;;;;;;;;;;;;;;1.95;100.00;98419.02;106372;1257;69472;-79
2024/02/03 10:20:05;;;;;;;13.20;8.70;;;;;;;1.99;100.00;98407.73;106391;1254;72694;-78
2024/02/03 10:22:33;;;;;;;11.50;7.60;;;;;;;2.03;100.00;98405.89;106144;1259;63227;-78
2024/02/03 10:25:09;;;;;;;15.20;8.00;;;;;;;2.06;100.00;98401.73;106109;1257;60450;-78
2024/02/03 10:27:41;;;;;;;9.60;6.80;;;;;;;2.10;100.00;98400.88;106540;1257;73732;-85
2024/02/03 10:30:08;;;;;;;13.40;8.30;;;;;;;2.15;100.00;98400.91;106573;1255;70452;-84
2024/02/03 10:32:37;;;;;;;10.80;6.90;;;;;;;2.21;100.00;98395.48;108931;1254;72695;-85
2024/02/03 10:35:08;;;;;;;8.70;6.60;;;;;;;2.25;100.00;98390.73;109389;1253;60671;-87
2024/02/03 10:37:37;;;;;;;9.30;6.90;;;;;;;2.29;100.00;98389.26;107885;1251;59096;-85
2024/02/03 10:40:04;;;;;;;10.70;7.40;;;;;;;2.32;100.00;98386.57;106764;1256;71925;-88
2024/02/03 10:42:32;;;;;;;11.40;6.90;;;;;;;2.37;100.00;98383.63;107245;1257;68995;-87
2024/02/03 10:44:59;;;;;;;17.10;10.50;;;;;;;2.43;100.00;98383.60;106586;1254;72456;-87
2024/02/03 10:47:26;;;;;;;11.60;8.30;;;;;;;2.47;100.00;98381.94;107210;1256;60725;-89
2024/02/03 10:49:53;;;;;;;18.30;11.30;;;;;;;2.46;100.00;98375.39;106649;1257;60422;-88
2024/02/03 10:52:20;;;;;;;11.30;7.80;;;;;;;2.49;100.00;98379.84;106603;1259;74022;-88
2024/02/03 10:54:51;;;;;;;9.50;6.40;;;;;;;2.52;100.00;98374.64;107490;1260;70390;-89
2024/02/03 10:57:18;;;;;;;9.00;6.60;;;;;;;2.58;100.00;98374.27;108185;1254;71432;-78
2024/02/03 10:59:45;;;;;;;10.30;6.20;;;;;;;2.62;100.00;98373.28;106475;1257;60711;-76
2024/02/03 11:02:18;;;;;;;8.10;5.90;;;;;;;2.66;100.00;98374.20;106424;1254;60374;-76
2024/02/03 11:04:51;;;;;;;8.30;5.20;;;;;;;2.70;100.00;98363.25;108175;1256;72664;-76
2024/02/03 11:07:25;;;;;;;7.70;5.30;;;;;;;2.76;100.00;98368.80;108835;1256;70004;-76
2024/02/03 11:09:54;;;;;;;7.20;5.60;;;;;;;2.83;100.00;98364.58;106195;1254;71558;-78
2024/02/03 11:12:53;;;;;;;7.30;4.80;;;;;;;2.88;100.00;98359.36;105926;1255;64367;-79
2024/02/03 11:15:20;;;;;;;7.20;5.60;;;;;;;2.93;100.00;98362.92;105804;1259;60521;-79
2024/02/03 11:17:49;;;;;;;7.60;4.70;;;;;;;2.96;100.00;98358.27;106495;1254;73724;-87
2024/02/03 11:20:19;;;;;;;6.50;4.40;;;;;;;2.99;100.00;98352.67;106560;1254;70362;-88
2024/02/03 11:22:52;;;;;;;6.40;5.00;;;;;;;3.06;100.00;98356.04;106408;1256;72670;-87
2024/02/03 11:25:19;;;;;;;8.30;6.10;;;;;;;3.07;100.00;98358.17;106579;1255;63321;-88